Time;durP1;ratioP1;P1;durP2;ratioP2;P2;SDS_P1;SDS_P2;PMS_P1;PMS_P2;Temp;Humidity;BMP_temperature;BMP_pressure;BME280_temperature;BME280_humidity;BME280_pressure;Samples;Min_cycle;Max_cycle;Signal;HPM_P1;HPM_P2
2022/01/05 00:01:46;;;;;;;6.40;2.03;;;;;;;;;;5065524;28;20194;-73
2022/01/05 00:04:13;;;;;;;1.52;1.30;;;;;;;;;;5071683;28;20217;-73
2022/01/05 00:06:40;;;;;;;2.05;1.27;;;;;;;;;;5071207;28;20304;-73
2022/01/05 00:09:07;;;;;;;2.70;1.55;;;;;;;;;;5070722;28;20194;-73
2022/01/05 00:11:35;;;;;;;2.63;1.40;;;;;;;;;;5069656;28;20195;-73
2022/01/05 00:14:02;;;;;;;2.17;1.52;;;;;;;;;;5068042;28;20202;-73
2022/01/05 00:16:30;;;;;;;1.50;1.17;;;;;;;;;;5069405;28;20198;-73
2022/01/05 00:18:58;;;;;;;3.28;1.60;;;;;;;;;;5069037;28;20225;-73
2022/01/05 00:21:25;;;;;;;2.30;1.30;;;;;;;;;;5066378;28;20285;-73
2022/01/05 00:23:52;;;;;;;2.65;1.52;;;;;;;;;;5071723;28;20657;-73
2022/01/05 00:26:19;;;;;;;4.20;1.38;;;;;;;;;;5065780;28;20199;-73
2022/01/05 00:28:46;;;;;;;3.00;1.40;;;;;;;;;;5070352;28;20202;-73
2022/01/05 00:31:14;;;;;;;5.13;2.08;;;;;;;;;;5067999;28;20206;-73
2022/01/05 00:33:42;;;;;;;7.30;2.25;;;;;;;;;;5071784;28;20201;-73
2022/01/05 00:36:09;;;;;;;2.05;1.25;;;;;;;;;;5069410;28;20190;-73
2022/01/05 00:38:36;;;;;;;3.30;1.35;;;;;;;;;;5068710;28;20194;-73
2022/01/05 00:41:04;;;;;;;3.40;1.30;;;;;;;;;;5065099;28;20193;-73
2022/01/05 00:43:31;;;;;;;6.15;1.88;;;;;;;;;;5069944;28;20289;-73
2022/01/05 00:45:58;;;;;;;2.47;1.50;;;;;;;;;;5067096;28;20221;-73
2022/01/05 00:48:25;;;;;;;3.13;1.30;;;;;;;;;;5069497;28;20202;-74
2022/01/05 00:50:54;;;;;;;2.58;1.40;;;;;;;;;;5068396;28;20203;-74
2022/01/05 00:53:21;;;;;;;3.67;1.15;;;;;;;;;;5062064;28;20687;-73
2022/01/05 00:55:48;;;;;;;2.10;1.25;;;;;;;;;;5063038;28;20186;-73
2022/01/05 00:58:15;;;;;;;5.75;2.95;;;;;;;;;;5071663;28;20592;-73
2022/01/05 01:00:42;;;;;;;2.15;1.20;;;;;;;;;;5069074;28;20673;-72
2022/01/05 01:03:09;;;;;;;3.50;1.40;;;;;;;;;;5064888;28;21052;-72
2022/01/05 01:05:37;;;;;;;2.42;1.25;;;;;;;;;;5071780;28;20198;-73
2022/01/05 01:08:06;;;;;;;2.30;1.35;;;;;;;;;;5065938;28;20203;-72
2022/01/05 01:10:33;;;;;;;5.38;1.40;;;;;;;;;;5068190;28;20202;-72
2022/01/05 01:13:00;;;;;;;3.17;1.30;;;;;;;;;;5067861;28;20191;-73
2022/01/05 01:15:27;;;;;;;3.58;1.83;;;;;;;;;;5065842;28;20190;-74
2022/01/05 01:17:54;;;;;;;6.57;1.45;;;;;;;;;;5071458;28;20202;-73
2022/01/05 01:20:21;;;;;;;3.30;1.10;;;;;;;;;;5070717;28;20252;-73
2022/01/05 01:22:48;;;;;;;5.30;1.50;;;;;;;;;;5054167;28;20556;-74
2022/01/05 01:25:17;;;;;;;2.53;1.10;;;;;;;;;;5063648;28;20205;-74
2022/01/05 01:27:44;;;;;;;1.98;1.33;;;;;;;;;;5069245;28;20222;-74
2022/01/05 01:30:12;;;;;;;4.85;1.45;;;;;;;;;;5069717;28;20218;-74
2022/01/05 01:32:40;;;;;;;3.28;1.30;;;;;;;;;;5059806;28;20202;-74
2022/01/05 01:35:08;;;;;;;5.20;2.80;;;;;;;;;;5062810;28;20222;-74
2022/01/05 01:37:35;;;;;;;3.47;1.75;;;;;;;;;;5065043;28;20194;-74
2022/01/05 01:40:03;;;;;;;3.13;1.30;;;;;;;;;;5069252;28;20213;-74
2022/01/05 01:42:31;;;;;;;2.88;1.35;;;;;;;;;;5070092;28;20202;-73
2022/01/05 01:44:59;;;;;;;2.67;1.20;;;;;;;;;;5069031;28;20190;-73
2022/01/05 01:47:26;;;;;;;7.53;1.45;;;;;;;;;;5070486;28;20193;-74
2022/01/05 01:49:53;;;;;;;2.97;1.20;;;;;;;;;;5068244;28;20208;-74
2022/01/05 01:52:20;;;;;;;3.95;1.10;;;;;;;;;;5064337;28;20214;-74
2022/01/05 01:54:47;;;;;;;2.97;1.17;;;;;;;;;;5070903;28;20190;-73
2022/01/05 01:57:14;;;;;;;2.47;1.20;;;;;;;;;;5069293;28;20648;-73
2022/01/05 01:59:44;;;;;;;2.38;1.33;;;;;;;;;;5066560;28;20222;-73
2022/01/05 02:02:12;;;;;;;3.80;1.55;;;;;;;;;;5065205;28;20187;-73
2022/01/05 02:04:41;;;;;;;2.85;1.27;;;;;;;;;;5066384;28;20194;-73
2022/01/05 02:07:08;;;;;;;6.70;2.25;;;;;;;;;;5065479;28;20296;-74
2022/01/05 02:09:35;;;;;;;2.15;1.50;;;;;;;;;;5070001;28;20205;-73
2022/01/05 02:12:02;;;;;;;3.95;2.25;;;;;;;;;;5068446;28;20653;-75
2022/01/05 02:14:29;;;;;;;5.38;1.83;;;;;;;;;;5070157;28;20186;-74
2022/01/05 02:17:02;;;;;;;6.43;1.33;;;;;;;;;;5068427;28;20198;-75
2022/01/05 02:19:29;;;;;;;4.10;1.67;;;;;;;;;;5058118;28;20214;-74
2022/01/05 02:21:58;;;;;;;3.03;1.30;;;;;;;;;;5065993;28;20205;-74
2022/01/05 02:24:25;;;;;;;2.90;1.35;;;;;;;;;;5070209;28;20676;-74
2022/01/05 02:26:52;;;;;;;1.98;1.40;;;;;;;;;;5069654;28;20572;-76
2022/01/05 02:29:19;;;;;;;6.00;1.95;;;;;;;;;;5069230;28;20202;-76
2022/01/05 02:31:46;;;;;;;3.17;1.77;;;;;;;;;;5058114;28;20676;-76
2022/01/05 02:34:16;;;;;;;6.60;1.50;;;;;;;;;;5054359;28;20187;-76
2022/01/05 02:36:43;;;;;;;8.52;1.70;;;;;;;;;;5064554;28;20592;-76
2022/01/05 02:39:11;;;;;;;1.90;1.30;;;;;;;;;;5069280;28;20201;-74
2022/01/05 02:41:38;;;;;;;4.80;1.80;;;;;;;;;;5065557;28;20545;-75
2022/01/05 02:44:06;;;;;;;2.22;1.70;;;;;;;;;;5062042;28;20670;-75
2022/01/05 02:46:34;;;;;;;3.80;1.40;;;;;;;;;;5065706;28;20198;-74
2022/01/05 02:49:02;;;;;;;10.63;2.53;;;;;;;;;;5067770;28;20186;-75
2022/01/05 02:51:30;;;;;;;4.35;1.83;;;;;;;;;;5068183;28;20190;-75
2022/01/05 02:53:57;;;;;;;4.93;1.85;;;;;;;;;;5069278;28;20198;-74
2022/01/05 02:56:25;;;;;;;2.65;1.40;;;;;;;;;;5070114;28;20190;-74
2022/01/05 02:58:52;;;;;;;3.50;1.30;;;;;;;;;;5067167;28;20667;-75
2022/01/05 03:01:19;;;;;;;3.10;2.10;;;;;;;;;;5062677;28;20579;-75
2022/01/05 03:03:46;;;;;;;1.85;1.30;;;;;;;;;;5062080;28;20194;-73
2022/01/05 03:06:13;;;;;;;3.75;1.58;;;;;;;;;;5068614;28;20252;-73
2022/01/05 03:08:40;;;;;;;5.03;1.83;;;;;;;;;;5069576;28;20194;-74
2022/01/05 03:11:07;;;;;;;3.67;1.60;;;;;;;;;;5067999;28;20198;-73
2022/01/05 03:13:36;;;;;;;2.97;1.80;;;;;;;;;;5068938;28;20194;-74
2022/01/05 03:16:03;;;;;;;1.20;1.10;;;;;;;;;;5063979;28;20202;-72
2022/01/05 03:18:30;;;;;;;4.22;1.65;;;;;;;;;;5071326;28;20198;-73
2022/01/05 03:20:57;;;;;;;3.17;1.58;;;;;;;;;;5071035;28;20217;-74
2022/01/05 03:23:24;;;;;;;3.45;1.50;;;;;;;;;;5057926;28;20187;-74
2022/01/05 03:25:53;;;;;;;2.65;1.45;;;;;;;;;;5063576;28;20201;-74
2022/01/05 03:28:21;;;;;;;3.08;1.10;;;;;;;;;;5072271;28;20585;-73
2022/01/05 03:30:49;;;;;;;2.20;1.40;;;;;;;;;;5067731;28;20208;-74
2022/01/05 03:33:20;;;;;;;1.50;1.10;;;;;;;;;;5072404;28;20197;-74
2022/01/05 03:35:48;;;;;;;5.38;1.75;;;;;;;;;;5073722;28;20190;-74
2022/01/05 03:38:16;;;;;;;5.68;1.75;;;;;;;;;;5053948;28;20199;-75
2022/01/05 03:40:43;;;;;;;4.43;1.95;;;;;;;;;;5070506;28;20626;-74
2022/01/05 03:43:11;;;;;;;6.60;1.65;;;;;;;;;;5073017;28;20617;-74
2022/01/05 03:45:39;;;;;;;4.15;2.20;;;;;;;;;;5068817;28;20189;-75
2022/01/05 03:48:08;;;;;;;2.47;1.80;;;;;;;;;;5069132;28;20194;-75
2022/01/05 03:50:36;;;;;;;3.00;1.90;;;;;;;;;;5073089;28;20194;-75
2022/01/05 03:53:04;;;;;;;2.97;1.95;;;;;;;;;;5055891;28;20198;-76
2022/01/05 03:55:31;;;;;;;6.07;1.58;;;;;;;;;;5063969;28;20591;-75
2022/01/05 03:57:58;;;;;;;2.47;1.33;;;;;;;;;;5071520;28;20422;-75
2022/01/05 04:00:27;;;;;;;3.25;1.33;;;;;;;;;;5065394;28;20226;-75
2022/01/05 04:02:54;;;;;;;9.93;1.80;;;;;;;;;;5053674;28;20218;-75
2022/01/05 04:05:23;;;;;;;4.30;1.80;;;;;;;;;;5069926;28;20198;-75
2022/01/05 04:07:50;;;;;;;4.20;1.73;;;;;;;;;;5063557;28;20198;-75
2022/01/05 04:10:18;;;;;;;4.38;2.00;;;;;;;;;;5069803;28;20194;-76
2022/01/05 04:12:46;;;;;;;2.30;1.75;;;;;;;;;;5065732;28;20198;-76
2022/01/05 04:15:13;;;;;;;3.85;1.95;;;;;;;;;;5069666;28;20653;-76
2022/01/05 04:17:40;;;;;;;8.07;2.25;;;;;;;;;;5070638;28;20194;-76
2022/01/05 04:20:09;;;;;;;4.53;1.42;;;;;;;;;;5069812;28;20232;-76
2022/01/05 04:22:38;;;;;;;2.50;1.85;;;;;;;;;;5066475;28;20194;-76
2022/01/05 04:25:06;;;;;;;9.27;2.92;;;;;;;;;;5069716;28;20195;-75
2022/01/05 04:27:33;;;;;;;7.63;2.08;;;;;;;;;;5071102;28;20241;-75
2022/01/05 04:30:00;;;;;;;2.42;1.85;;;;;;;;;;5060190;28;20214;-75
2022/01/05 04:32:27;;;;;;;3.95;1.80;;;;;;;;;;5072202;28;20201;-75
2022/01/05 04:34:54;;;;;;;3.45;1.52;;;;;;;;;;5057255;28;20201;-75
2022/01/05 04:37:22;;;;;;;3.42;1.63;;;;;;;;;;5065535;28;20552;-76
2022/01/05 04:39:50;;;;;;;2.38;1.80;;;;;;;;;;5071305;28;20392;-74
2022/01/05 04:42:17;;;;;;;4.05;2.10;;;;;;;;;;5071212;28;20277;-75
2022/01/05 04:44:44;;;;;;;1.85;1.73;;;;;;;;;;5070134;28;20199;-75
2022/01/05 04:47:12;;;;;;;3.30;1.60;;;;;;;;;;5059840;28;20206;-76
2022/01/05 04:49:39;;;;;;;8.98;2.92;;;;;;;;;;5066490;28;20205;-71
2022/01/05 04:52:06;;;;;;;5.93;1.83;;;;;;;;;;5065576;28;20205;-72
2022/01/05 04:54:33;;;;;;;2.95;1.75;;;;;;;;;;5070987;28;20193;-71
2022/01/05 04:57:02;;;;;;;5.40;2.05;;;;;;;;;;5071244;28;20206;-71
2022/01/05 04:59:29;;;;;;;4.28;1.90;;;;;;;;;;5069014;28;20672;-72
2022/01/05 05:01:56;;;;;;;4.15;1.80;;;;;;;;;;5069744;28;20684;-72
2022/01/05 05:04:23;;;;;;;2.80;1.52;;;;;;;;;;5070487;28;20187;-71
2022/01/05 05:06:50;;;;;;;6.10;2.08;;;;;;;;;;5061662;28;20190;-71
2022/01/05 05:09:17;;;;;;;4.47;1.80;;;;;;;;;;5063904;28;20194;-71
2022/01/05 05:11:44;;;;;;;2.95;1.58;;;;;;;;;;5064029;28;20210;-72
2022/01/05 05:14:12;;;;;;;4.88;2.58;;;;;;;;;;5064065;28;20198;-71
2022/01/05 05:16:40;;;;;;;3.20;1.83;;;;;;;;;;5068432;28;20194;-71
2022/01/05 05:19:07;;;;;;;5.00;2.10;;;;;;;;;;5071027;28;20186;-72
2022/01/05 05:21:34;;;;;;;6.20;2.13;;;;;;;;;;5064740;28;20218;-73
2022/01/05 05:24:01;;;;;;;3.95;1.65;;;;;;;;;;5065484;28;20190;-72
2022/01/05 05:26:28;;;;;;;5.63;2.00;;;;;;;;;;5067152;28;20214;-73
2022/01/05 05:28:56;;;;;;;4.13;1.40;;;;;;;;;;5069906;28;20221;-72
2022/01/05 05:31:24;;;;;;;3.03;1.75;;;;;;;;;;5068345;28;20205;-72
2022/01/05 05:33:51;;;;;;;3.58;1.90;;;;;;;;;;5057235;28;20657;-72
2022/01/05 05:36:18;;;;;;;3.78;2.00;;;;;;;;;;5058699;28;20210;-74
2022/01/05 05:38:45;;;;;;;1.95;1.77;;;;;;;;;;5051386;28;20190;-74
2022/01/05 05:41:12;;;;;;;3.60;2.00;;;;;;;;;;5063000;28;20202;-76
2022/01/05 05:43:39;;;;;;;3.72;2.05;;;;;;;;;;5065161;28;20186;-74
2022/01/05 05:46:06;;;;;;;5.22;2.22;;;;;;;;;;5063975;28;20568;-77
2022/01/05 05:48:35;;;;;;;4.22;2.03;;;;;;;;;;5066691;28;20191;-72
2022/01/05 05:51:02;;;;;;;4.20;2.20;;;;;;;;;;5068101;28;20201;-72
2022/01/05 05:53:29;;;;;;;5.20;2.67;;;;;;;;;;5054993;28;20198;-73
2022/01/05 05:55:56;;;;;;;4.57;2.33;;;;;;;;;;5069787;28;20209;-73
2022/01/05 05:58:23;;;;;;;6.90;2.65;;;;;;;;;;5067926;28;20190;-73
2022/01/05 06:00:50;;;;;;;3.25;2.00;;;;;;;;;;5060258;28;20221;-72
2022/01/05 06:03:17;;;;;;;4.10;1.70;;;;;;;;;;5070723;28;20194;-72
2022/01/05 06:05:45;;;;;;;8.93;2.40;;;;;;;;;;5066890;28;20672;-72
2022/01/05 06:08:12;;;;;;;6.25;2.00;;;;;;;;;;5063719;28;20568;-73
2022/01/05 06:10:40;;;;;;;8.15;2.42;;;;;;;;;;5051898;28;20693;-73
2022/01/05 06:13:07;;;;;;;6.10;1.83;;;;;;;;;;5070622;28;20205;-73
2022/01/05 06:15:34;;;;;;;6.60;2.40;;;;;;;;;;5064807;28;20198;-74
2022/01/05 06:18:01;;;;;;;7.03;2.38;;;;;;;;;;5066501;28;20780;-74
2022/01/05 06:20:28;;;;;;;9.57;3.15;;;;;;;;;;5069072;28;20569;-74
2022/01/05 06:22:56;;;;;;;7.50;1.67;;;;;;;;;;5053158;28;20535;-74
2022/01/05 06:25:23;;;;;;;4.50;1.98;;;;;;;;;;5055176;28;20197;-74
2022/01/05 06:27:50;;;;;;;3.42;2.05;;;;;;;;;;5069153;28;20218;-73
2022/01/05 06:30:17;;;;;;;3.97;2.15;;;;;;;;;;5053081;28;20581;-73
2022/01/05 06:32:46;;;;;;;2.28;2.08;;;;;;;;;;5069610;28;20202;-73
2022/01/05 06:35:13;;;;;;;5.63;1.98;;;;;;;;;;5069952;28;20190;-73
2022/01/05 06:37:40;;;;;;;6.70;2.88;;;;;;;;;;5061038;28;20197;-74
2022/01/05 06:40:09;;;;;;;5.95;2.33;;;;;;;;;;5068922;28;20201;-74
2022/01/05 06:42:36;;;;;;;5.97;2.30;;;;;;;;;;5062978;28;20218;-74
2022/01/05 06:45:03;;;;;;;5.07;1.85;;;;;;;;;;5050665;28;20680;-74
2022/01/05 06:47:30;;;;;;;4.15;2.28;;;;;;;;;;5068561;28;20194;-74
2022/01/05 06:49:57;;;;;;;3.38;1.92;;;;;;;;;;5068228;28;20194;-74
2022/01/05 06:52:24;;;;;;;6.75;2.72;;;;;;;;;;5066556;28;20201;-74
2022/01/05 06:54:52;;;;;;;6.13;2.75;;;;;;;;;;5072273;28;20967;-74
2022/01/05 06:57:20;;;;;;;5.22;2.00;;;;;;;;;;5072861;28;20561;-76
2022/01/05 06:59:47;;;;;;;5.32;2.67;;;;;;;;;;5066952;28;20202;-72
2022/01/05 07:02:15;;;;;;;8.10;2.35;;;;;;;;;;5073433;28;20214;-76
2022/01/05 07:04:42;;;;;;;2.65;1.75;;;;;;;;;;5073285;28;20194;-74
2022/01/05 07:07:09;;;;;;;8.63;3.20;;;;;;;;;;5069667;28;20198;-77
2022/01/05 07:09:36;;;;;;;5.82;2.28;;;;;;;;;;5068373;28;20681;-74
2022/01/05 07:12:03;;;;;;;5.70;2.60;;;;;;;;;;5073127;28;20588;-74
2022/01/05 07:14:31;;;;;;;4.75;1.92;;;;;;;;;;5073564;28;20190;-76
2022/01/05 07:16:58;;;;;;;4.85;2.25;;;;;;;;;;5069203;28;20201;-73
2022/01/05 07:19:26;;;;;;;4.30;1.80;;;;;;;;;;5068589;28;20201;-73
2022/01/05 07:21:53;;;;;;;13.95;4.43;;;;;;;;;;5062876;28;20218;-75
2022/01/05 07:24:20;;;;;;;4.45;2.25;;;;;;;;;;5072663;28;20201;-74
2022/01/05 07:26:47;;;;;;;5.30;3.03;;;;;;;;;;5070805;28;20580;-73
2022/01/05 07:29:15;;;;;;;5.70;2.53;;;;;;;;;;5066612;28;20215;-72
2022/01/05 07:31:43;;;;;;;8.82;2.92;;;;;;;;;;5066134;28;20205;-72
2022/01/05 07:34:11;;;;;;;5.93;2.45;;;;;;;;;;5072031;28;20187;-71
2022/01/05 07:36:38;;;;;;;7.10;3.53;;;;;;;;;;5066637;28;20206;-71
2022/01/05 07:39:06;;;;;;;5.60;3.63;;;;;;;;;;5065934;28;20205;-72
2022/01/05 07:41:33;;;;;;;4.97;2.47;;;;;;;;;;5069737;28;20234;-75
2022/01/05 07:44:00;;;;;;;4.20;2.45;;;;;;;;;;5072242;28;20197;-74
2022/01/05 07:46:27;;;;;;;3.03;2.50;;;;;;;;;;5066900;28;20201;-73
2022/01/05 07:48:56;;;;;;;3.88;2.35;;;;;;;;;;5065073;28;20656;-73
2022/01/05 07:51:23;;;;;;;6.32;2.20;;;;;;;;;;5067072;28;20191;-76
2022/01/05 07:53:50;;;;;;;8.95;2.72;;;;;;;;;;5072741;28;20194;-75
2022/01/05 07:56:17;;;;;;;6.05;2.85;;;;;;;;;;5071411;28;20201;-74
2022/01/05 07:58:44;;;;;;;5.32;2.78;;;;;;;;;;5072728;28;20191;-75
2022/01/05 08:01:11;;;;;;;5.53;2.05;;;;;;;;;;5075461;28;20229;-76
2022/01/05 08:03:38;;;;;;;7.35;2.65;;;;;;;;;;5069405;28;20286;-75
2022/01/05 08:06:07;;;;;;;5.22;2.95;;;;;;;;;;5067825;28;20194;-74
2022/01/05 08:08:34;;;;;;;9.18;3.17;;;;;;;;;;5065043;28;20201;-72
2022/01/05 08:11:01;;;;;;;10.18;2.83;;;;;;;;;;5068265;28;20194;-73
2022/01/05 08:13:28;;;;;;;4.28;2.97;;;;;;;;;;5067008;28;20205;-72
2022/01/05 08:15:55;;;;;;;6.72;2.30;;;;;;;;;;5065723;28;20225;-71
2022/01/05 08:18:23;;;;;;;8.70;3.28;;;;;;;;;;5064265;28;20249;-71
2022/01/05 08:20:50;;;;;;;3.90;2.47;;;;;;;;;;5066644;28;20200;-71
2022/01/05 08:23:19;;;;;;;6.40;2.50;;;;;;;;;;5066207;28;20624;-71
2022/01/05 08:25:46;;;;;;;5.32;2.70;;;;;;;;;;5070301;28;20198;-72
2022/01/05 08:28:13;;;;;;;8.88;3.55;;;;;;;;;;5071428;28;20214;-73
2022/01/05 08:30:41;;;;;;;11.23;3.83;;;;;;;;;;5070899;28;20194;-72
2022/01/05 08:33:08;;;;;;;9.00;3.78;;;;;;;;;;5075562;28;20198;-71
2022/01/05 08:35:35;;;;;;;10.32;3.38;;;;;;;;;;5077213;28;20197;-71
2022/01/05 08:38:03;;;;;;;6.78;3.25;;;;;;;;;;5071598;28;20248;-71
2022/01/05 08:40:32;;;;;;;4.38;2.35;;;;;;;;;;5074583;28;20190;-72
2022/01/05 08:42:59;;;;;;;12.75;2.50;;;;;;;;;;5070698;28;20225;-70
2022/01/05 08:45:26;;;;;;;7.95;3.38;;;;;;;;;;5070537;28;20197;-71
2022/01/05 08:47:59;;;;;;;7.47;3.72;;;;;;;;;;5070755;28;20202;-70
2022/01/05 08:50:27;;;;;;;5.22;3.03;;;;;;;;;;5071029;28;20190;-71
2022/01/05 08:52:54;;;;;;;7.10;3.80;;;;;;;;;;5069450;28;20207;-72
2022/01/05 08:55:22;;;;;;;10.20;3.58;;;;;;;;;;5074262;28;20740;-70
2022/01/05 08:57:51;;;;;;;5.32;2.88;;;;;;;;;;5071175;28;20198;-71
2022/01/05 09:00:18;;;;;;;5.80;3.05;;;;;;;;;;5060386;28;20191;-70
2022/01/05 09:02:46;;;;;;;14.90;3.60;;;;;;;;;;5075355;28;20225;-71
2022/01/05 09:05:13;;;;;;;8.95;2.88;;;;;;;;;;5068693;28;20202;-71
2022/01/05 09:07:40;;;;;;;6.50;3.10;;;;;;;;;;5065078;28;20198;-72
2022/01/05 09:10:07;;;;;;;7.72;3.08;;;;;;;;;;5069282;28;20190;-70
2022/01/05 09:12:35;;;;;;;6.47;3.55;;;;;;;;;;5067657;28;20241;-74
2022/01/05 09:15:04;;;;;;;6.85;3.22;;;;;;;;;;5065287;28;20564;-72
2022/01/05 09:17:31;;;;;;;4.18;2.35;;;;;;;;;;5068064;28;20202;-73
2022/01/05 09:19:59;;;;;;;10.15;3.60;;;;;;;;;;5069712;28;20203;-73
2022/01/05 09:22:26;;;;;;;3.60;3.03;;;;;;;;;;5065443;28;20222;-73
2022/01/05 09:24:54;;;;;;;7.47;3.38;;;;;;;;;;5069369;28;20190;-74
2022/01/05 09:27:21;;;;;;;4.32;2.30;;;;;;;;;;5069227;28;20206;-73
2022/01/05 09:29:48;;;;;;;6.53;3.40;;;;;;;;;;5071780;28;20209;-73
2022/01/05 09:32:17;;;;;;;11.35;3.65;;;;;;;;;;5065651;28;20198;-72
2022/01/05 09:34:44;;;;;;;8.85;4.13;;;;;;;;;;5062008;28;20205;-73
2022/01/05 09:37:17;;;;;;;5.30;3.28;;;;;;;;;;5065084;28;20277;-73
2022/01/05 09:42:30;;;;;;;12.63;3.95;;;;;;;;;;5060707;28;20290;-73
2022/01/05 09:44:58;;;;;;;9.10;3.90;;;;;;;;;;5064575;28;20247;-74
2022/01/05 09:47:40;;;;;;;8.20;3.15;;;;;;;;;;5069816;28;20202;-73
2022/01/05 09:50:10;;;;;;;6.47;3.40;;;;;;;;;;5056619;28;20200;-73
2022/01/05 09:52:38;;;;;;;7.32;3.53;;;;;;;;;;5069695;28;20205;-73
2022/01/05 09:55:06;;;;;;;6.32;4.50;;;;;;;;;;5064196;28;20198;-73
2022/01/05 09:57:34;;;;;;;8.77;3.90;;;;;;;;;;5067584;28;20205;-73
2022/01/05 10:00:01;;;;;;;9.65;4.85;;;;;;;;;;5057940;28;20199;-73
2022/01/05 10:02:30;;;;;;;7.70;3.55;;;;;;;;;;5068120;28;20240;-73
2022/01/05 10:04:57;;;;;;;9.20;3.08;;;;;;;;;;5068751;28;20206;-73
2022/01/05 10:07:25;;;;;;;3.92;3.45;;;;;;;;;;5067016;28;20201;-73
2022/01/05 10:09:52;;;;;;;5.18;3.60;;;;;;;;;;5069054;28;20190;-73
2022/01/05 10:12:19;;;;;;;6.88;3.17;;;;;;;;;;5068360;28;20221;-73
2022/01/05 10:14:47;;;;;;;6.60;3.78;;;;;;;;;;5069261;28;20200;-73
2022/01/05 10:17:16;;;;;;;8.52;3.60;;;;;;;;;;5064241;28;20203;-73
2022/01/05 10:19:43;;;;;;;6.93;4.38;;;;;;;;;;5069586;28;20192;-73
2022/01/05 10:22:29;;;;;;;7.43;4.20;;;;;;;;;;5062934;28;20224;-73
2022/01/05 10:24:56;;;;;;;8.73;4.30;;;;;;;;;;5068733;28;20194;-73
2022/01/05 10:27:24;;;;;;;4.82;4.28;;;;;;;;;;5061038;28;20214;-73
2022/01/05 10:29:52;;;;;;;6.05;4.05;;;;;;;;;;5062185;28;20206;-73
2022/01/05 10:32:19;;;;;;;5.47;3.60;;;;;;;;;;5069045;28;20194;-73
2022/01/05 10:34:59;;;;;;;8.90;4.75;;;;;;;;;;5069611;28;20194;-73
2022/01/05 10:37:27;;;;;;;6.45;4.57;;;;;;;;;;5067821;28;20297;-72
2022/01/05 10:40:06;;;;;;;5.10;3.75;;;;;;;;;;5073098;28;20194;-75
2022/01/05 10:42:34;;;;;;;7.88;6.00;;;;;;;;;;5070560;28;20223;-74
2022/01/05 10:45:03;;;;;;;5.80;3.97;;;;;;;;;;5056932;28;20201;-75
2022/01/05 10:47:30;;;;;;;4.78;3.92;;;;;;;;;;5062995;28;20593;-73
2022/01/05 10:49:57;;;;;;;9.20;4.10;;;;;;;;;;5069407;28;20650;-74
2022/01/05 10:52:25;;;;;;;8.07;3.85;;;;;;;;;;5074055;28;20205;-76
2022/01/05 10:54:53;;;;;;;7.75;4.10;;;;;;;;;;5061303;28;20263;-77
2022/01/05 10:57:22;;;;;;;8.07;4.40;;;;;;;;;;5062919;28;20201;-74
2022/01/05 10:59:50;;;;;;;7.55;4.88;;;;;;;;;;5062784;28;20199;-75
2022/01/05 11:02:21;;;;;;;4.22;3.65;;;;;;;;;;5061345;28;20225;-73
2022/01/05 11:04:48;;;;;;;6.22;3.65;;;;;;;;;;5066242;28;20575;-73
2022/01/05 11:07:20;;;;;;;7.40;4.53;;;;;;;;;;5057357;28;20198;-73
2022/01/05 11:09:53;;;;;;;6.43;4.25;;;;;;;;;;5065753;28;20214;-73
2022/01/05 11:12:21;;;;;;;9.75;4.35;;;;;;;;;;5059842;28;20206;-74
2022/01/05 11:14:49;;;;;;;8.13;4.88;;;;;;;;;;5064865;28;20194;-73
2022/01/05 11:17:18;;;;;;;10.50;3.95;;;;;;;;;;5064196;28;20206;-74
2022/01/05 11:19:45;;;;;;;6.53;4.45;;;;;;;;;;5065386;28;20233;-74
2022/01/05 11:22:14;;;;;;;7.53;4.00;;;;;;;;;;5064870;28;20712;-75
2022/01/05 11:24:42;;;;;;;7.43;4.75;;;;;;;;;;5058909;28;20824;-75
2022/01/05 11:27:11;;;;;;;7.72;3.75;;;;;;;;;;5052030;28;20214;-74
2022/01/05 11:29:40;;;;;;;5.68;4.72;;;;;;;;;;5067218;28;20202;-74
2022/01/05 11:32:08;;;;;;;5.55;3.53;;;;;;;;;;5064087;28;20230;-76
2022/01/05 11:34:35;;;;;;;3.65;3.25;;;;;;;;;;5064507;28;20207;-75
2022/01/05 11:37:02;;;;;;;8.32;3.80;;;;;;;;;;5063133;28;20592;-73
2022/01/05 11:39:31;;;;;;;6.05;3.65;;;;;;;;;;5067156;28;20273;-74
2022/01/05 11:41:59;;;;;;;7.72;3.90;;;;;;;;;;5068601;28;20259;-73
2022/01/05 11:44:28;;;;;;;8.30;4.25;;;;;;;;;;5067297;28;20201;-74
2022/01/05 11:46:57;;;;;;;7.60;4.55;;;;;;;;;;5067292;28;20228;-73
2022/01/05 11:49:28;;;;;;;5.50;3.50;;;;;;;;;;5068980;28;20198;-73
2022/01/05 11:51:56;;;;;;;3.10;2.80;;;;;;;;;;5065412;28;20672;-73
2022/01/05 11:54:24;;;;;;;9.63;4.00;;;;;;;;;;5073464;28;20204;-76
2022/01/05 11:56:52;;;;;;;3.88;3.42;;;;;;;;;;5066744;28;20194;-73
2022/01/05 11:59:24;;;;;;;4.25;3.38;;;;;;;;;;5068221;28;20194;-73
2022/01/05 12:02:03;;;;;;;6.75;3.50;;;;;;;;;;5066120;28;20202;-73
2022/01/05 12:04:30;;;;;;;3.10;2.80;;;;;;;;;;5068397;28;20194;-73
2022/01/05 12:07:06;;;;;;;4.35;2.88;;;;;;;;;;5069069;28;20206;-75
2022/01/05 12:09:34;;;;;;;4.63;3.72;;;;;;;;;;5067879;28;20239;-75
2022/01/05 12:12:21;;;;;;;5.25;3.85;;;;;;;;;;5069131;28;20202;-75
2022/01/05 12:14:48;;;;;;;5.65;3.10;;;;;;;;;;5068512;28;20190;-74
2022/01/05 12:17:18;;;;;;;12.05;3.83;;;;;;;;;;5066534;28;20210;-75
2022/01/05 12:20:04;;;;;;;5.85;3.88;;;;;;;;;;5069110;28;20187;-73
2022/01/05 12:22:32;;;;;;;8.27;3.60;;;;;;;;;;5058753;28;20832;-73
2022/01/05 12:25:16;;;;;;;3.70;3.40;;;;;;;;;;5070704;28;20194;-74
2022/01/05 12:27:54;;;;;;;6.82;3.80;;;;;;;;;;5076457;28;20696;-73
2022/01/05 12:30:36;;;;;;;4.75;2.90;;;;;;;;;;5057570;28;20250;-74
2022/01/05 12:33:06;;;;;;;3.92;3.10;;;;;;;;;;5067897;28;20205;-74
2022/01/05 12:35:44;;;;;;;6.15;3.42;;;;;;;;;;5068327;28;20194;-74
2022/01/05 12:38:11;;;;;;;5.68;3.25;;;;;;;;;;5062472;28;20197;-73
2022/01/05 12:40:38;;;;;;;5.65;3.85;;;;;;;;;;5067937;28;20198;-76
2022/01/05 12:43:32;;;;;;;3.50;2.75;;;;;;;;;;5062530;28;20684;-74
2022/01/05 12:46:02;;;;;;;4.13;3.00;;;;;;;;;;5052491;28;20558;-75
2022/01/05 12:48:48;;;;;;;5.05;3.58;;;;;;;;;;5065169;28;20198;-75
2022/01/05 12:51:42;;;;;;;6.90;3.72;;;;;;;;;;5058847;28;20581;-72
2022/01/05 12:54:11;;;;;;;4.55;2.97;;;;;;;;;;5053179;28;20195;-74
2022/01/05 12:56:41;;;;;;;3.50;3.03;;;;;;;;;;5062265;28;20198;-72
2022/01/05 12:59:09;;;;;;;6.60;3.05;;;;;;;;;;5064223;28;20194;-74
2022/01/05 13:01:36;;;;;;;4.55;2.90;;;;;;;;;;5067093;28;20194;-75
2022/01/05 13:04:09;;;;;;;1.90;1.80;;;;;;;;;;5066547;28;20226;-76
2022/01/05 13:06:36;;;;;;;2.80;2.53;;;;;;;;;;5060776;28;20199;-74
2022/01/05 13:09:07;;;;;;;6.72;2.20;;;;;;;;;;5063397;28;20202;-74
2022/01/05 13:11:35;;;;;;;9.32;2.72;;;;;;;;;;5067046;28;20661;-75
2022/01/05 13:14:14;;;;;;;2.80;2.53;;;;;;;;;;5062455;28;20605;-74
2022/01/05 13:16:41;;;;;;;3.00;2.70;;;;;;;;;;5059284;28;20713;-72
2022/01/05 13:19:14;;;;;;;3.10;2.80;;;;;;;;;;5059616;28;20269;-73
2022/01/05 13:21:44;;;;;;;4.72;2.65;;;;;;;;;;5057945;28;20561;-73
2022/01/05 13:24:13;;;;;;;3.95;2.38;;;;;;;;;;5058377;28;20271;-74
2022/01/05 13:26:54;;;;;;;2.10;1.90;;;;;;;;;;5063283;28;20219;-74
2022/01/05 13:29:22;;;;;;;2.60;2.17;;;;;;;;;;5053776;28;20657;-73
2022/01/05 13:31:54;;;;;;;6.18;3.65;;;;;;;;;;5061049;28;20555;-73
2022/01/05 13:34:29;;;;;;;2.78;2.05;;;;;;;;;;5063438;28;20203;-74
2022/01/05 13:36:56;;;;;;;2.47;2.28;;;;;;;;;;5053859;28;20198;-74
2022/01/05 13:39:36;;;;;;;3.08;2.00;;;;;;;;;;5065850;28;20201;-73
2022/01/05 13:42:03;;;;;;;2.97;1.60;;;;;;;;;;5066727;28;20550;-74
2022/01/05 13:44:30;;;;;;;3.03;1.88;;;;;;;;;;5055089;28;20237;-75
2022/01/05 13:46:58;;;;;;;2.30;2.15;;;;;;;;;;5067456;28;20707;-72
2022/01/05 13:49:25;;;;;;;2.38;1.70;;;;;;;;;;5063103;28;20205;-74
2022/01/05 13:52:06;;;;;;;2.20;1.52;;;;;;;;;;5062746;28;20202;-74
2022/01/05 13:54:34;;;;;;;3.47;2.30;;;;;;;;;;5064102;28;20214;-74
2022/01/05 13:57:02;;;;;;;3.38;2.00;;;;;;;;;;5058774;28;20198;-72
2022/01/05 13:59:39;;;;;;;3.80;2.10;;;;;;;;;;5058986;28;20195;-73
2022/01/05 14:02:08;;;;;;;2.25;1.75;;;;;;;;;;5063423;28;20200;-73
2022/01/05 14:04:47;;;;;;;2.63;1.98;;;;;;;;;;5065989;28;20221;-74
2022/01/05 14:07:17;;;;;;;3.05;1.95;;;;;;;;;;5060464;28;20201;-73
2022/01/05 14:09:45;;;;;;;1.92;1.67;;;;;;;;;;5066275;28;20211;-74
2022/01/05 14:12:27;;;;;;;1.90;1.65;;;;;;;;;;5065695;28;20561;-73
2022/01/05 14:14:59;;;;;;;2.03;1.83;;;;;;;;;;5067981;28;20198;-73
2022/01/05 14:17:26;;;;;;;2.75;1.55;;;;;;;;;;5068537;28;20641;-73
2022/01/05 14:20:12;;;;;;;2.90;1.73;;;;;;;;;;5065407;28;20201;-73
2022/01/05 14:22:40;;;;;;;4.30;1.85;;;;;;;;;;5063407;28;20191;-73
2022/01/05 14:25:07;;;;;;;9.05;2.05;;;;;;;;;;5066862;28;20557;-73
2022/01/05 14:27:37;;;;;;;4.03;2.50;;;;;;;;;;5056972;28;20214;-72
2022/01/05 14:30:06;;;;;;;3.05;1.73;;;;;;;;;;5063908;28;20228;-73
2022/01/05 14:32:35;;;;;;;2.75;1.70;;;;;;;;;;5056231;28;20200;-73
2022/01/05 14:35:03;;;;;;;3.78;1.83;;;;;;;;;;5066716;28;20202;-73
2022/01/05 14:37:30;;;;;;;1.80;1.25;;;;;;;;;;5059220;28;20296;-74
2022/01/05 14:39:58;;;;;;;7.90;1.23;;;;;;;;;;5065204;28;20225;-73
2022/01/05 14:42:26;;;;;;;3.22;1.35;;;;;;;;;;5067515;28;20194;-72
2022/01/05 14:44:54;;;;;;;2.45;1.70;;;;;;;;;;5062776;28;20279;-73
2022/01/05 14:47:24;;;;;;;2.08;1.45;;;;;;;;;;5065713;28;20194;-73
2022/01/05 14:49:52;;;;;;;1.90;1.52;;;;;;;;;;5065021;28;20190;-74
2022/01/05 14:52:22;;;;;;;4.55;1.70;;;;;;;;;;5065351;28;20512;-74
2022/01/05 14:54:52;;;;;;;2.47;1.55;;;;;;;;;;5067984;28;20223;-73